createdAt,value
2018-07-17T00:00:52.093Z,5.67
2018-07-17T00:03:25.533Z,5.87
2018-07-17T00:05:58.912Z,5.25
2018-07-17T00:08:32.354Z,4.83
2018-07-17T00:11:05.834Z,4.40
2018-07-17T00:13:39.288Z,5.67
2018-07-17T00:16:12.744Z,5.35
2018-07-17T00:18:46.152Z,4.90
2018-07-17T00:21:19.547Z,4.80
2018-07-17T00:23:52.959Z,4.57
2018-07-17T00:26:26.430Z,5.70
2018-07-17T00:28:59.810Z,5.37
2018-07-17T00:31:33.206Z,4.55
2018-07-17T00:34:06.962Z,5.03
2018-07-17T00:36:40.376Z,5.80
2018-07-17T00:39:13.804Z,5.93
2018-07-17T00:41:47.232Z,4.63
2018-07-17T00:44:20.986Z,5.15
2018-07-17T00:46:54.419Z,5.63
2018-07-17T00:49:27.857Z,5.20
2018-07-17T00:52:01.249Z,4.53
2018-07-17T00:54:34.712Z,4.77
2018-07-17T00:57:08.290Z,4.87
2018-07-17T00:59:41.754Z,4.73
2018-07-17T01:02:20.513Z,5.27
2018-07-17T01:04:59.316Z,5.63
2018-07-17T01:07:38.089Z,5.57
2018-07-17T01:10:16.655Z,5.97
2018-07-17T01:12:49.287Z,4.70
2018-07-17T01:15:26.584Z,4.83
2018-07-17T01:18:00.039Z,5.47
2018-07-17T01:20:33.480Z,5.03
2018-07-17T01:23:06.883Z,5.17
2018-07-17T01:25:40.289Z,5.63
2018-07-17T01:28:15.807Z,5.83
2018-07-17T01:30:49.205Z,5.33
2018-07-17T01:33:22.644Z,5.93
2018-07-17T01:35:56.049Z,5.00
2018-07-17T01:38:29.576Z,5.57
2018-07-17T01:41:03.082Z,5.70
2018-07-17T01:43:36.496Z,5.00
2018-07-17T01:46:09.900Z,6.10
2018-07-17T01:48:43.336Z,6.10
2018-07-17T01:51:16.731Z,5.93
2018-07-17T01:53:50.144Z,4.80
2018-07-17T01:56:23.551Z,6.20
2018-07-17T01:58:56.956Z,5.07
2018-07-17T02:01:30.436Z,5.30
2018-07-17T02:04:04.065Z,5.23
2018-07-17T02:06:37.493Z,5.07
2018-07-17T02:09:10.942Z,6.20
2018-07-17T02:11:44.341Z,5.70
2018-07-17T02:14:17.763Z,6.83
2018-07-17T02:16:51.202Z,5.87
2018-07-17T02:19:24.576Z,5.90
2018-07-17T02:21:57.976Z,5.17
2018-07-17T02:24:31.364Z,5.23
2018-07-17T02:27:05.010Z,5.70
2018-07-17T02:29:38.440Z,6.67
2018-07-17T02:32:18.278Z,5.20
2018-07-17T02:34:51.670Z,6.73
2018-07-17T02:37:25.089Z,6.00
2018-07-17T02:39:58.484Z,5.67
2018-07-17T02:42:31.916Z,5.20
2018-07-17T02:45:05.501Z,5.27
2018-07-17T02:47:38.910Z,4.63
2018-07-17T02:50:12.311Z,5.70
2018-07-17T02:52:45.729Z,6.10
2018-07-17T02:55:19.144Z,5.50
2018-07-17T02:57:52.596Z,5.63
2018-07-17T03:00:26.035Z,5.90
2018-07-17T03:02:59.465Z,5.07
2018-07-17T03:05:32.877Z,5.70
2018-07-17T03:08:12.763Z,5.83
2018-07-17T03:10:46.185Z,4.47
2018-07-17T03:13:19.651Z,5.40
2018-07-17T03:15:52.711Z,5.20
2018-07-17T03:18:26.125Z,5.40
2018-07-17T03:20:59.519Z,5.50
2018-07-17T03:23:32.984Z,5.93
2018-07-17T03:26:06.378Z,5.73
2018-07-17T03:28:39.785Z,5.30
2018-07-17T03:31:13.207Z,5.97
2018-07-17T03:33:46.638Z,5.90
2018-07-17T03:36:20.258Z,5.93
2018-07-17T03:38:53.634Z,6.10
2018-07-17T03:41:27.030Z,6.93
2018-07-17T03:44:00.094Z,5.90
2018-07-17T03:46:33.574Z,5.70
2018-07-17T03:49:06.996Z,4.67
2018-07-17T03:51:40.476Z,5.80
2018-07-17T03:54:13.933Z,5.77
2018-07-17T03:56:47.399Z,6.10
2018-07-17T03:59:20.849Z,4.90
2018-07-17T04:01:54.267Z,5.67
2018-07-17T04:04:27.752Z,5.57
2018-07-17T04:07:01.142Z,5.60
2018-07-17T04:09:34.577Z,5.60
2018-07-17T04:12:08.293Z,6.73
2018-07-17T04:14:41.795Z,5.80
2018-07-17T04:17:15.226Z,5.93
2018-07-17T04:19:48.728Z,6.27
2018-07-17T04:22:22.168Z,7.03
2018-07-17T04:24:55.600Z,5.60
2018-07-17T04:27:29.057Z,5.03
2018-07-17T04:30:02.736Z,5.03
2018-07-17T04:32:36.162Z,5.67
2018-07-17T04:35:09.856Z,5.63
2018-07-17T04:37:43.261Z,4.63
2018-07-17T04:40:16.699Z,6.47
2018-07-17T04:42:50.118Z,5.20
2018-07-17T04:45:23.605Z,5.90
2018-07-17T04:47:57.049Z,5.00
2018-07-17T04:50:30.473Z,5.90
2018-07-17T04:53:03.873Z,5.50
2018-07-17T04:55:37.292Z,4.77
2018-07-17T04:58:10.717Z,5.63
2018-07-17T05:00:44.156Z,4.70
2018-07-17T05:03:17.560Z,5.35
2018-07-17T05:05:50.989Z,5.83
2018-07-17T05:08:24.399Z,5.25
2018-07-17T05:10:57.846Z,5.75
2018-07-17T05:13:31.243Z,5.40
2018-07-17T05:16:04.862Z,5.30
2018-07-17T05:18:38.243Z,4.90
2018-07-17T05:21:11.666Z,5.20
2018-07-17T05:23:51.484Z,5.25
2018-07-17T05:26:24.914Z,4.87
2018-07-17T05:28:58.388Z,5.20
2018-07-17T05:31:31.767Z,4.87
2018-07-17T05:34:05.155Z,5.05
2018-07-17T05:36:38.588Z,5.03
2018-07-17T05:39:12.006Z,4.72
2018-07-17T05:41:45.461Z,4.70
2018-07-17T05:44:18.866Z,5.78
2018-07-17T05:46:52.351Z,5.97
2018-07-17T05:49:25.744Z,5.15
2018-07-17T05:51:59.252Z,5.35
2018-07-17T05:54:32.592Z,6.10
2018-07-17T05:57:06.096Z,5.95
2018-07-17T05:59:39.505Z,5.28
2018-07-17T06:02:13.082Z,5.20
2018-07-17T06:04:46.522Z,5.30
2018-07-17T06:07:19.925Z,5.20
2018-07-17T06:09:53.404Z,5.33
2018-07-17T06:12:26.812Z,5.30
2018-07-17T06:15:00.449Z,5.70
2018-07-17T06:17:33.876Z,5.45
2018-07-17T06:20:07.781Z,4.80
2018-07-17T06:22:41.221Z,4.35
2018-07-17T06:25:14.693Z,4.58
2018-07-17T06:27:48.082Z,4.33
2018-07-17T06:30:21.656Z,4.33
2018-07-17T06:32:55.182Z,4.00
2018-07-17T06:35:28.612Z,4.25
2018-07-17T06:38:02.041Z,3.85
2018-07-17T06:40:35.495Z,4.30
2018-07-17T06:43:08.889Z,3.50
2018-07-17T06:45:42.372Z,3.70
2018-07-17T06:48:15.763Z,4.50
2018-07-17T06:50:49.243Z,3.72
2018-07-17T06:53:22.686Z,3.40
2018-07-17T06:55:56.153Z,4.00
2018-07-17T06:58:29.547Z,3.65
2018-07-17T07:01:09.412Z,3.92
2018-07-17T07:03:42.844Z,4.33
2018-07-17T07:06:16.576Z,4.00
2018-07-17T07:08:49.970Z,4.28
2018-07-17T07:11:23.544Z,4.05
2018-07-17T07:13:56.792Z,4.05
2018-07-17T07:16:30.245Z,4.15
2018-07-17T07:19:03.632Z,4.08
2018-07-17T07:21:37.065Z,4.10
2018-07-17T07:24:10.506Z,4.37
2018-07-17T07:26:43.956Z,3.70
2018-07-17T07:29:17.364Z,4.20
2018-07-17T07:31:50.780Z,4.30
2018-07-17T07:34:24.203Z,3.58
2018-07-17T07:36:57.617Z,3.90
2018-07-17T07:39:31.065Z,3.80
2018-07-17T07:42:04.524Z,3.85
2018-07-17T07:44:38.020Z,3.90
2018-07-17T07:47:11.573Z,3.85
2018-07-17T07:49:45.013Z,4.05
2018-07-17T07:52:18.434Z,3.62
2018-07-17T07:54:51.845Z,3.92
2018-07-17T07:57:25.264Z,3.90
2018-07-17T07:59:58.720Z,3.35
2018-07-17T08:02:32.149Z,3.62
2018-07-17T08:05:06.025Z,3.87
2018-07-17T08:07:39.487Z,3.95
2018-07-17T08:10:12.977Z,3.50
2018-07-17T08:12:46.401Z,4.00
2018-07-17T08:15:19.865Z,4.10
2018-07-17T08:17:53.285Z,4.05
2018-07-17T08:20:26.712Z,4.10
2018-07-17T08:23:00.248Z,4.45
2018-07-17T08:25:33.653Z,4.00
2018-07-17T08:28:09.711Z,3.70
2018-07-17T08:30:43.150Z,3.50
2018-07-17T08:33:16.589Z,3.95
2018-07-17T08:35:50.201Z,3.80
2018-07-17T08:38:23.589Z,4.10
2018-07-17T08:40:57.033Z,4.08
2018-07-17T08:43:30.631Z,3.60
2018-07-17T08:46:03.928Z,3.72
2018-07-17T08:48:37.352Z,3.75
2018-07-17T08:51:10.805Z,4.17
2018-07-17T08:53:44.321Z,3.98
2018-07-17T08:56:17.792Z,4.30
2018-07-17T08:58:51.227Z,3.87
2018-07-17T09:01:24.640Z,4.30
2018-07-17T09:03:58.059Z,4.60
2018-07-17T09:06:31.471Z,4.28
2018-07-17T09:09:06.045Z,4.10
2018-07-17T09:11:39.557Z,4.50
2018-07-17T09:14:12.951Z,4.33
2018-07-17T09:16:46.404Z,4.97
2018-07-17T09:19:19.843Z,5.00
2018-07-17T09:21:53.295Z,3.70
2018-07-17T09:24:26.725Z,3.98
2018-07-17T09:27:00.185Z,4.20
2018-07-17T09:29:33.667Z,4.80
2018-07-17T09:32:07.136Z,4.12
2018-07-17T09:34:40.533Z,4.55
2018-07-17T09:37:20.915Z,4.62
2018-07-17T09:39:54.402Z,3.98
2018-07-17T09:42:27.845Z,3.90
2018-07-17T09:45:01.285Z,4.72
2018-07-17T09:47:34.704Z,4.85
2018-07-17T09:50:08.130Z,4.62
2018-07-17T09:52:41.517Z,4.58
2018-07-17T09:55:14.945Z,4.30
2018-07-17T09:57:48.384Z,4.40
2018-07-17T10:00:27.113Z,3.62
2018-07-17T10:03:00.524Z,4.05
2018-07-17T10:05:33.959Z,4.80
2018-07-17T10:08:07.391Z,4.35
2018-07-17T10:10:40.830Z,4.20
2018-07-17T10:13:14.399Z,3.75
2018-07-17T10:15:47.963Z,4.70
2018-07-17T10:18:21.437Z,3.80
2018-07-17T10:20:54.856Z,4.30
2018-07-17T10:23:28.292Z,4.00
2018-07-17T10:26:01.748Z,3.45
2018-07-17T10:28:35.217Z,4.00
2018-07-17T10:31:08.792Z,3.67
2018-07-17T10:33:42.277Z,3.80
2018-07-17T10:36:15.676Z,3.12
2018-07-17T10:38:49.115Z,2.85
2018-07-17T10:41:22.551Z,3.47
2018-07-17T10:43:55.965Z,3.25
2018-07-17T10:46:29.498Z,3.05
2018-07-17T10:49:02.893Z,3.62
2018-07-17T10:51:36.361Z,2.70
2018-07-17T10:54:09.894Z,2.95
2018-07-17T10:56:43.345Z,3.15
2018-07-17T10:59:16.796Z,3.00
2018-07-17T11:01:50.238Z,2.75
2018-07-17T11:04:23.688Z,2.90
2018-07-17T11:06:57.123Z,3.52
2018-07-17T11:09:30.603Z,3.20
2018-07-17T11:12:03.699Z,3.30
2018-07-17T11:14:37.133Z,3.42
2018-07-17T11:17:10.774Z,2.70
2018-07-17T11:19:44.254Z,2.80
2018-07-17T11:22:17.737Z,2.98
2018-07-17T11:24:51.185Z,2.92
2018-07-17T11:27:24.655Z,2.50
2018-07-17T11:29:58.081Z,2.65
2018-07-17T11:32:31.560Z,2.58
2018-07-17T11:35:05.669Z,2.83
2018-07-17T11:37:39.151Z,2.50
2018-07-17T11:40:12.622Z,2.80
2018-07-17T11:42:46.110Z,2.25
2018-07-17T11:45:19.544Z,2.10
2018-07-17T11:47:53.074Z,2.67
2018-07-17T11:50:26.494Z,2.67
2018-07-17T11:52:59.949Z,2.50
2018-07-17T11:55:33.359Z,3.30
2018-07-17T11:58:06.916Z,2.67
2018-07-17T12:00:40.373Z,2.80
2018-07-17T12:03:13.903Z,2.60
2018-07-17T12:05:47.427Z,2.95
2018-07-17T12:08:21.052Z,3.50
2018-07-17T12:10:54.556Z,2.87
2018-07-17T12:13:28.018Z,3.17
2018-07-17T12:16:01.513Z,2.22
2018-07-17T12:18:34.987Z,3.12
2018-07-17T12:21:08.408Z,2.80
2018-07-17T12:23:41.868Z,2.72
2018-07-17T12:26:15.345Z,3.08
2018-07-17T12:28:48.899Z,2.10
2018-07-17T12:31:22.376Z,2.72
2018-07-17T12:33:55.821Z,3.30
2018-07-17T12:36:29.275Z,2.80
2018-07-17T12:39:02.839Z,3.08
2018-07-17T12:41:36.337Z,2.85
2018-07-17T12:44:09.866Z,3.00
2018-07-17T12:46:43.301Z,2.70
2018-07-17T12:49:16.766Z,3.10
2018-07-17T12:51:50.234Z,2.00
2018-07-17T12:54:23.715Z,2.35
2018-07-17T12:56:57.239Z,3.02
2018-07-17T12:59:30.729Z,3.40
2018-07-17T13:02:04.240Z,3.25
2018-07-17T13:04:37.713Z,2.75
2018-07-17T13:07:11.340Z,2.75
2018-07-17T13:09:44.992Z,3.85
2018-07-17T13:12:18.464Z,3.45
2018-07-17T13:14:51.929Z,3.00
2018-07-17T13:17:25.487Z,3.10
2018-07-17T13:19:58.851Z,2.98
2018-07-17T13:22:32.320Z,4.00
2018-07-17T13:25:05.778Z,2.92
2018-07-17T13:27:39.241Z,2.83
2018-07-17T13:30:12.699Z,2.85
2018-07-17T13:32:46.200Z,2.25
2018-07-17T13:35:19.746Z,3.10
2018-07-17T13:37:53.235Z,3.00
2018-07-17T13:40:26.354Z,2.95
2018-07-17T13:42:59.823Z,2.75
2018-07-17T13:45:33.318Z,3.15
2018-07-17T13:48:06.838Z,3.10
2018-07-17T13:50:40.614Z,3.58
2018-07-17T13:53:14.061Z,3.08
2018-07-17T13:55:47.540Z,3.45
2018-07-17T13:58:21.030Z,3.08
2018-07-17T14:00:54.548Z,4.22
2018-07-17T14:03:28.141Z,3.75
2018-07-17T14:06:01.706Z,3.37
2018-07-17T14:08:35.144Z,3.85
2018-07-17T14:11:08.660Z,3.87
2018-07-17T14:13:42.129Z,3.17
2018-07-17T14:16:15.594Z,3.87
2018-07-17T14:18:49.055Z,3.00
2018-07-17T14:21:22.530Z,2.85
2018-07-17T14:23:56.008Z,2.62
2018-07-17T14:26:29.482Z,2.67
2018-07-17T14:29:02.979Z,2.40
2018-07-17T14:31:36.493Z,2.80
2018-07-17T14:34:09.929Z,2.90
2018-07-17T14:36:43.048Z,2.17
2018-07-17T14:39:16.541Z,2.40
2018-07-17T14:41:50.112Z,2.50
2018-07-17T14:44:23.914Z,2.37
2018-07-17T14:46:57.387Z,2.30
2018-07-17T14:49:30.826Z,2.12
2018-07-17T14:52:04.434Z,2.60
2018-07-17T14:54:37.938Z,2.80
2018-07-17T14:57:11.814Z,3.15
2018-07-17T14:59:45.329Z,2.80
2018-07-17T15:02:18.834Z,3.00
2018-07-17T15:04:52.343Z,3.22
2018-07-17T15:07:25.972Z,2.40
2018-07-17T15:09:59.497Z,2.25
2018-07-17T15:12:32.919Z,2.27
2018-07-17T15:15:06.932Z,2.83
2018-07-17T15:17:40.386Z,2.60
2018-07-17T15:20:13.868Z,2.87
2018-07-17T15:22:47.379Z,3.20
2018-07-17T15:25:20.905Z,2.72
2018-07-17T15:27:54.493Z,2.33
2018-07-17T15:30:27.859Z,2.47
2018-07-17T15:33:01.352Z,3.00
2018-07-17T15:35:34.866Z,2.62
2018-07-17T15:38:08.350Z,2.83
2018-07-17T15:40:41.864Z,2.80
2018-07-17T15:43:15.264Z,2.30
2018-07-17T15:45:48.800Z,2.80
2018-07-17T15:48:22.237Z,2.75
2018-07-17T15:50:55.714Z,2.20
2018-07-17T15:53:29.185Z,2.40
2018-07-17T15:56:02.705Z,1.98
2018-07-17T15:58:36.164Z,1.90
2018-07-17T16:01:09.711Z,2.05
2018-07-17T16:03:43.148Z,1.82
2018-07-17T16:06:16.733Z,2.17
2018-07-17T16:08:50.197Z,3.05
2018-07-17T16:11:23.698Z,3.20
2018-07-17T16:13:57.386Z,4.08
2018-07-17T16:16:31.614Z,4.33
2018-07-17T16:19:05.346Z,4.60
2018-07-17T16:21:38.798Z,3.70
2018-07-17T16:24:12.318Z,3.67
2018-07-17T16:26:45.835Z,3.72
2018-07-17T16:29:19.422Z,4.00
2018-07-17T16:31:52.988Z,3.40
2018-07-17T16:34:26.507Z,3.50
2018-07-17T16:37:00.063Z,3.47
2018-07-17T16:39:33.554Z,2.87
2018-07-17T16:42:07.067Z,2.67
2018-07-17T16:44:40.515Z,2.90
2018-07-17T16:47:13.950Z,2.80
2018-07-17T16:49:47.474Z,2.72
2018-07-17T16:52:20.976Z,3.30
2018-07-17T16:54:54.467Z,3.20
2018-07-17T16:57:28.012Z,2.55
2018-07-17T17:00:01.506Z,3.15
2018-07-17T17:02:34.980Z,2.02
2018-07-17T17:05:08.461Z,1.95
2018-07-17T17:07:41.944Z,2.77
2018-07-17T17:10:15.450Z,2.25
2018-07-17T17:12:48.994Z,2.17
2018-07-17T17:15:22.462Z,2.15
2018-07-17T17:17:55.926Z,2.75
2018-07-17T17:20:29.404Z,2.90
2018-07-17T17:23:02.847Z,2.80
2018-07-17T17:25:36.325Z,2.20
2018-07-17T17:28:09.761Z,2.72
2018-07-17T17:30:43.222Z,2.40
2018-07-17T17:33:16.651Z,2.50
2018-07-17T17:35:50.105Z,2.20
2018-07-17T17:38:23.551Z,2.30
2018-07-17T17:40:57.032Z,2.50
2018-07-17T17:43:30.503Z,2.40
2018-07-17T17:46:03.690Z,2.10
2018-07-17T17:48:37.282Z,2.47
2018-07-17T17:51:10.826Z,2.47
2018-07-17T17:53:44.276Z,2.50
2018-07-17T17:56:17.792Z,2.25
2018-07-17T17:58:51.318Z,2.30
2018-07-17T18:01:24.825Z,2.30
2018-07-17T18:03:58.284Z,2.40
2018-07-17T18:06:31.895Z,2.80
2018-07-17T18:09:07.305Z,2.50
2018-07-17T18:11:40.825Z,2.60
2018-07-17T18:14:14.311Z,2.50
2018-07-17T18:16:47.802Z,2.77
2018-07-17T18:19:21.279Z,2.80
2018-07-17T18:21:54.776Z,2.27
2018-07-17T18:24:28.228Z,3.00
2018-07-17T18:27:01.773Z,2.67
2018-07-17T18:29:35.258Z,2.62
2018-07-17T18:32:08.966Z,2.33
2018-07-17T18:34:42.480Z,2.70
2018-07-17T18:37:16.307Z,2.60
2018-07-17T18:39:49.853Z,2.70
2018-07-17T18:42:23.305Z,2.50
2018-07-17T18:44:56.865Z,3.17
2018-07-17T18:47:30.316Z,3.20
2018-07-17T18:50:12.858Z,2.80
2018-07-17T18:52:37.480Z,3.12
2018-07-17T18:55:11.018Z,2.83
2018-07-17T18:57:44.610Z,2.70
2018-07-17T19:00:18.109Z,3.25
2018-07-17T19:02:51.658Z,2.90
2018-07-17T19:05:25.234Z,3.80
2018-07-17T19:07:58.857Z,3.50
2018-07-17T19:10:32.363Z,3.70
2018-07-17T19:13:06.031Z,4.10
2018-07-17T19:15:39.657Z,3.98
2018-07-17T19:18:13.155Z,3.40
2018-07-17T19:20:46.770Z,3.37
2018-07-17T19:23:20.377Z,4.45
2018-07-17T19:25:54.182Z,3.83
2018-07-17T19:28:27.687Z,3.42
2018-07-17T19:31:01.176Z,3.17
2018-07-17T19:33:34.764Z,4.17
2018-07-17T19:36:08.248Z,4.30
2018-07-17T19:38:41.788Z,5.00
2018-07-17T19:41:15.278Z,5.03
2018-07-17T19:43:49.378Z,3.52
2018-07-17T19:46:22.933Z,3.80
2018-07-17T19:48:56.480Z,3.47
2018-07-17T19:51:30.035Z,3.80
2018-07-17T19:54:03.659Z,3.52
2018-07-17T19:56:37.493Z,3.37
2018-07-17T19:59:10.997Z,3.37
2018-07-17T20:01:44.595Z,3.65
2018-07-17T20:04:18.172Z,3.52
2018-07-17T20:06:51.689Z,3.10
2018-07-17T20:09:25.270Z,3.45
2018-07-17T20:11:58.761Z,2.90
2018-07-17T20:14:32.269Z,3.42
2018-07-17T20:17:05.847Z,3.22
2018-07-17T20:19:39.413Z,2.98
2018-07-17T20:22:12.980Z,3.05
2018-07-17T20:24:46.564Z,2.75
2018-07-17T20:27:20.033Z,3.37
2018-07-17T20:29:53.516Z,3.25
2018-07-17T20:32:27.003Z,3.47
2018-07-17T20:35:00.522Z,3.25
2018-07-17T20:37:33.992Z,3.22
2018-07-17T20:40:07.511Z,2.90
2018-07-17T20:42:40.974Z,2.77
2018-07-17T20:45:14.482Z,3.60
2018-07-17T20:47:47.969Z,3.35
2018-07-17T20:50:21.514Z,3.25
2018-07-17T20:52:55.022Z,3.27
2018-07-17T20:55:28.817Z,2.60
2018-07-17T20:58:02.333Z,3.80
2018-07-17T21:00:35.810Z,3.20
2018-07-17T21:03:09.377Z,3.52
2018-07-17T21:05:42.872Z,3.30
2018-07-17T21:08:16.371Z,4.00
2018-07-17T21:10:56.521Z,3.70
2018-07-17T21:13:29.990Z,4.17
2018-07-17T21:16:03.449Z,3.70
2018-07-17T21:18:36.930Z,3.55
2018-07-17T21:21:10.424Z,4.30
2018-07-17T21:23:43.942Z,3.47
2018-07-17T21:26:17.410Z,4.03
2018-07-17T21:28:50.883Z,3.45
2018-07-17T21:31:24.404Z,4.15
2018-07-17T21:33:58.111Z,4.35
2018-07-17T21:36:31.534Z,4.10
2018-07-17T21:39:07.813Z,3.67
2018-07-17T21:41:41.289Z,3.85
2018-07-17T21:44:14.736Z,4.25
2018-07-17T21:46:48.181Z,4.58
2018-07-17T21:49:21.692Z,3.70
2018-07-17T21:51:55.135Z,4.03
2018-07-17T21:54:31.651Z,3.60
2018-07-17T21:57:05.403Z,4.50
2018-07-17T21:59:38.876Z,4.20
2018-07-17T22:02:12.325Z,3.55
2018-07-17T22:04:45.754Z,4.30
2018-07-17T22:07:19.253Z,3.87
2018-07-17T22:09:52.752Z,3.58
2018-07-17T22:12:26.202Z,4.65
2018-07-17T22:14:59.633Z,3.40
2018-07-17T22:17:33.069Z,3.90
2018-07-17T22:20:06.652Z,3.70
2018-07-17T22:22:40.161Z,3.92
2018-07-17T22:25:13.590Z,4.08
2018-07-17T22:27:47.070Z,4.37
2018-07-17T22:30:20.508Z,4.12
2018-07-17T22:32:53.962Z,4.40
2018-07-17T22:35:27.413Z,4.17
2018-07-17T22:38:00.889Z,3.72
2018-07-17T22:40:34.342Z,3.70
2018-07-17T22:43:07.816Z,3.65
2018-07-17T22:45:41.270Z,3.67
2018-07-17T22:48:14.776Z,3.80
2018-07-17T22:50:48.246Z,3.40
2018-07-17T22:53:21.711Z,4.10
2018-07-17T22:55:55.225Z,3.60
2018-07-17T22:58:28.675Z,3.67
2018-07-17T23:01:02.307Z,4.25
2018-07-17T23:03:35.715Z,4.22
2018-07-17T23:06:09.255Z,4.10
2018-07-17T23:08:42.686Z,3.70
2018-07-17T23:11:16.176Z,4.22
2018-07-17T23:13:49.626Z,3.87
2018-07-17T23:16:23.081Z,3.92
2018-07-17T23:18:56.558Z,3.77
2018-07-17T23:21:29.977Z,3.58
2018-07-17T23:24:03.457Z,3.67
2018-07-17T23:26:36.861Z,3.98
2018-07-17T23:29:10.324Z,4.28
2018-07-17T23:31:43.857Z,3.47
2018-07-17T23:34:17.268Z,3.60
2018-07-17T23:36:50.937Z,3.08
2018-07-17T23:39:24.356Z,4.10
2018-07-17T23:41:57.777Z,3.67
2018-07-17T23:44:31.231Z,4.85
2018-07-17T23:47:04.953Z,3.92
2018-07-17T23:49:38.980Z,4.78
2018-07-17T23:52:12.438Z,4.03
2018-07-17T23:54:45.876Z,4.03
2018-07-17T23:57:19.328Z,3.98
2018-07-17T23:59:52.789Z,4.20
